sensor_id;sensor_type;location;lat;lon;timestamp;P1;durP1;ratioP1;P2;durP2;ratioP2
12038;SDS011;6080;48.818;9.526;2023-03-23T04:02:43;7.40;;;6.80;;
12038;SDS011;6080;48.818;9.526;2023-03-23T04:05:15;7.17;;;6.77;;
12038;SDS011;6080;48.818;9.526;2023-03-23T04:07:42;14.40;;;13.60;;
12038;SDS011;6080;48.818;9.526;2023-03-23T04:10:08;23.53;;;22.33;;
12038;SDS011;6080;48.818;9.526;2023-03-23T04:12:36;21.37;;;20.27;;
12038;SDS011;6080;48.818;9.526;2023-03-23T04:15:02;18.77;;;17.87;;
12038;SDS011;6080;48.818;9.526;2023-03-23T04:17:29;20.37;;;19.37;;
12038;SDS011;6080;48.818;9.526;2023-03-23T04:19:55;18.97;;;17.97;;
12038;SDS011;6080;48.818;9.526;2023-03-23T04:22:32;18.40;;;17.40;;
12038;SDS011;6080;48.818;9.526;2023-03-23T04:24:58;19.50;;;18.47;;
12038;SDS011;6080;48.818;9.526;2023-03-23T04:27:27;18.70;;;17.17;;
12038;SDS011;6080;48.818;9.526;2023-03-23T04:29:54;19.63;;;18.57;;
12038;SDS011;6080;48.818;9.526;2023-03-23T04:32:23;18.80;;;17.77;;
12038;SDS011;6080;48.818;9.526;2023-03-23T04:34:54;21.50;;;20.30;;
12038;SDS011;6080;48.818;9.526;2023-03-23T04:37:23;18.03;;;17.13;;
12038;SDS011;6080;48.818;9.526;2023-03-23T04:39:54;19.27;;;18.37;;
12038;SDS011;6080;48.818;9.526;2023-03-23T04:42:32;21.53;;;20.30;;
12038;SDS011;6080;48.818;9.526;2023-03-23T04:44:58;17.30;;;16.40;;
12038;SDS011;6080;48.818;9.526;2023-03-23T04:47:25;16.80;;;15.70;;
12038;SDS011;6080;48.818;9.526;2023-03-23T04:49:55;16.27;;;15.47;;
12038;SDS011;6080;48.818;9.526;2023-03-23T04:52:22;15.73;;;14.17;;
12038;SDS011;6080;48.818;9.526;2023-03-23T04:54:51;16.20;;;15.30;;
12038;SDS011;6080;48.818;9.526;2023-03-23T04:57:18;21.90;;;20.63;;
12038;SDS011;6080;48.818;9.526;2023-03-23T04:59:43;32.80;;;31.00;;
12038;SDS011;6080;48.818;9.526;2023-03-23T05:02:10;30.60;;;29.10;;
12038;SDS011;6080;48.818;9.526;2023-03-23T05:04:38;31.60;;;29.90;;
12038;SDS011;6080;48.818;9.526;2023-03-23T05:07:06;33.10;;;31.40;;
12038;SDS011;6080;48.818;9.526;2023-03-23T05:09:33;33.67;;;31.70;;
12038;SDS011;6080;48.818;9.526;2023-03-23T05:12:07;36.53;;;34.13;;
12038;SDS011;6080;48.818;9.526;2023-03-23T05:14:34;35.27;;;33.10;;
12038;SDS011;6080;48.818;9.526;2023-03-23T05:17:01;35.73;;;33.63;;
12038;SDS011;6080;48.818;9.526;2023-03-23T05:19:27;36.33;;;34.23;;
12038;SDS011;6080;48.818;9.526;2023-03-23T05:21:53;36.53;;;34.23;;
12038;SDS011;6080;48.818;9.526;2023-03-23T05:24:21;30.60;;;28.90;;
12038;SDS011;6080;48.818;9.526;2023-03-23T05:26:49;22.77;;;21.57;;
12038;SDS011;6080;48.818;9.526;2023-03-23T05:29:17;19.60;;;17.90;;
12038;SDS011;6080;48.818;9.526;2023-03-23T05:31:43;17.97;;;16.20;;
12038;SDS011;6080;48.818;9.526;2023-03-23T05:34:09;17.80;;;16.60;;
12038;SDS011;6080;48.818;9.526;2023-03-23T05:36:37;17.10;;;16.03;;
12038;SDS011;6080;48.818;9.526;2023-03-23T05:39:02;18.90;;;17.47;;
12038;SDS011;6080;48.818;9.526;2023-03-23T05:41:28;22.43;;;21.03;;
12038;SDS011;6080;48.818;9.526;2023-03-23T05:43:54;30.33;;;28.63;;
12038;SDS011;6080;48.818;9.526;2023-03-23T05:46:20;33.07;;;31.27;;
12038;SDS011;6080;48.818;9.526;2023-03-23T05:48:46;27.27;;;25.73;;
12038;SDS011;6080;48.818;9.526;2023-03-23T05:51:12;22.40;;;20.53;;
12038;SDS011;6080;48.818;9.526;2023-03-23T05:53:38;24.23;;;22.70;;
12038;SDS011;6080;48.818;9.526;2023-03-23T05:56:04;24.67;;;22.90;;
12038;SDS011;6080;48.818;9.526;2023-03-23T05:58:30;21.67;;;20.07;;
12038;SDS011;6080;48.818;9.526;2023-03-23T06:00:56;20.47;;;19.07;;
12038;SDS011;6080;48.818;9.526;2023-03-23T06:03:22;18.67;;;17.27;;
12038;SDS011;6080;48.818;9.526;2023-03-23T06:05:48;18.17;;;16.90;;
12038;SDS011;6080;48.818;9.526;2023-03-23T06:08:14;17.67;;;16.47;;
12038;SDS011;6080;48.818;9.526;2023-03-23T06:10:39;18.17;;;16.83;;
12038;SDS011;6080;48.818;9.526;2023-03-23T06:13:05;17.23;;;16.20;;
12038;SDS011;6080;48.818;9.526;2023-03-23T06:15:31;15.97;;;14.77;;
12038;SDS011;6080;48.818;9.526;2023-03-23T06:18:01;17.17;;;16.10;;
12038;SDS011;6080;48.818;9.526;2023-03-23T06:20:29;23.03;;;21.63;;
12038;SDS011;6080;48.818;9.526;2023-03-23T06:22:55;36.73;;;34.17;;
12038;SDS011;6080;48.818;9.526;2023-03-23T06:25:21;38.60;;;36.00;;
12038;SDS011;6080;48.818;9.526;2023-03-23T06:27:48;32.73;;;30.80;;
12038;SDS011;6080;48.818;9.526;2023-03-23T06:30:14;30.57;;;28.57;;
12038;SDS011;6080;48.818;9.526;2023-03-23T06:32:40;18.47;;;17.03;;
12038;SDS011;6080;48.818;9.526;2023-03-23T06:35:09;15.40;;;12.27;;
12038;SDS011;6080;48.818;9.526;2023-03-23T06:37:35;9.57;;;8.73;;
12038;SDS011;6080;48.818;9.526;2023-03-23T06:40:02;10.57;;;8.67;;
12038;SDS011;6080;48.818;9.526;2023-03-23T06:42:31;8.00;;;7.03;;
12038;SDS011;6080;48.818;9.526;2023-03-23T06:44:58;8.53;;;6.60;;
12038;SDS011;6080;48.818;9.526;2023-03-23T06:47:26;8.60;;;6.50;;
12038;SDS011;6080;48.818;9.526;2023-03-23T06:49:55;7.47;;;6.77;;
12038;SDS011;6080;48.818;9.526;2023-03-23T06:52:21;7.07;;;6.43;;
12038;SDS011;6080;48.818;9.526;2023-03-23T06:54:51;12.90;;;6.83;;
12038;SDS011;6080;48.818;9.526;2023-03-23T06:57:18;7.10;;;6.60;;
12038;SDS011;6080;48.818;9.526;2023-03-23T06:59:44;9.27;;;6.13;;
12038;SDS011;6080;48.818;9.526;2023-03-23T07:02:11;7.87;;;7.13;;
12038;SDS011;6080;48.818;9.526;2023-03-23T07:04:39;22.03;;;20.43;;
12038;SDS011;6080;48.818;9.526;2023-03-23T07:07:07;32.20;;;29.90;;
12038;SDS011;6080;48.818;9.526;2023-03-23T07:09:34;24.90;;;23.40;;
12038;SDS011;6080;48.818;9.526;2023-03-23T07:12:00;23.03;;;20.93;;
12038;SDS011;6080;48.818;9.526;2023-03-23T07:14:26;15.50;;;14.03;;
12038;SDS011;6080;48.818;9.526;2023-03-23T07:16:51;15.90;;;14.50;;
12038;SDS011;6080;48.818;9.526;2023-03-23T07:19:18;39.20;;;36.13;;
12038;SDS011;6080;48.818;9.526;2023-03-23T07:21:44;26.57;;;24.13;;
12038;SDS011;6080;48.818;9.526;2023-03-23T07:24:11;41.50;;;38.83;;
12038;SDS011;6080;48.818;9.526;2023-03-23T07:26:40;68.43;;;64.07;;
12038;SDS011;6080;48.818;9.526;2023-03-23T07:29:07;43.47;;;40.73;;
12038;SDS011;6080;48.818;9.526;2023-03-23T07:31:33;28.33;;;26.00;;
12038;SDS011;6080;48.818;9.526;2023-03-23T07:34:00;15.77;;;14.37;;
12038;SDS011;6080;48.818;9.526;2023-03-23T07:36:26;14.67;;;11.77;;
12038;SDS011;6080;48.818;9.526;2023-03-23T07:38:52;13.83;;;12.60;;
12038;SDS011;6080;48.818;9.526;2023-03-23T07:41:18;14.70;;;13.50;;
12038;SDS011;6080;48.818;9.526;2023-03-23T07:43:44;35.63;;;33.03;;
12038;SDS011;6080;48.818;9.526;2023-03-23T07:46:11;45.37;;;42.13;;
12038;SDS011;6080;48.818;9.526;2023-03-23T07:48:37;20.97;;;19.30;;
12038;SDS011;6080;48.818;9.526;2023-03-23T07:51:04;23.17;;;21.07;;
12038;SDS011;6080;48.818;9.526;2023-03-23T07:53:32;26.63;;;24.40;;
12038;SDS011;6080;48.818;9.526;2023-03-23T07:55:58;46.03;;;42.83;;
12038;SDS011;6080;48.818;9.526;2023-03-23T07:58:24;54.67;;;51.23;;
12038;SDS011;6080;48.818;9.526;2023-03-23T08:00:51;68.70;;;64.50;;
12038;SDS011;6080;48.818;9.526;2023-03-23T08:03:18;47.90;;;43.30;;
12038;SDS011;6080;48.818;9.526;2023-03-23T08:05:44;46.10;;;41.63;;
12038;SDS011;6080;48.818;9.526;2023-03-23T08:08:10;25.67;;;23.10;;
12038;SDS011;6080;48.818;9.526;2023-03-23T08:10:36;22.77;;;14.97;;
12038;SDS011;6080;48.818;9.526;2023-03-23T08:13:02;15.60;;;14.00;;
12038;SDS011;6080;48.818;9.526;2023-03-23T08:15:28;22.07;;;19.83;;
12038;SDS011;6080;48.818;9.526;2023-03-23T08:17:54;21.83;;;20.20;;
12038;SDS011;6080;48.818;9.526;2023-03-23T08:20:20;19.17;;;13.30;;
12038;SDS011;6080;48.818;9.526;2023-03-23T08:22:51;19.10;;;17.10;;
12038;SDS011;6080;48.818;9.526;2023-03-23T08:25:20;16.13;;;13.93;;
12038;SDS011;6080;48.818;9.526;2023-03-23T08:27:46;12.90;;;11.70;;
12038;SDS011;6080;48.818;9.526;2023-03-23T08:30:14;11.43;;;10.33;;
12038;SDS011;6080;48.818;9.526;2023-03-23T08:32:42;16.30;;;11.93;;
12038;SDS011;6080;48.818;9.526;2023-03-23T08:35:09;18.57;;;17.20;;
12038;SDS011;6080;48.818;9.526;2023-03-23T08:37:36;10.20;;;9.17;;
12038;SDS011;6080;48.818;9.526;2023-03-23T08:40:03;12.43;;;10.30;;
12038;SDS011;6080;48.818;9.526;2023-03-23T08:42:37;11.70;;;10.90;;
12038;SDS011;6080;48.818;9.526;2023-03-23T08:45:05;5.30;;;5.00;;
12038;SDS011;6080;48.818;9.526;2023-03-23T08:47:32;6.27;;;5.97;;
12038;SDS011;6080;48.818;9.526;2023-03-23T08:49:58;5.20;;;4.90;;
12038;SDS011;6080;48.818;9.526;2023-03-23T08:52:25;5.60;;;5.20;;
12038;SDS011;6080;48.818;9.526;2023-03-23T08:54:50;5.60;;;5.10;;
12038;SDS011;6080;48.818;9.526;2023-03-23T08:57:16;5.43;;;5.20;;
12038;SDS011;6080;48.818;9.526;2023-03-23T08:59:43;7.33;;;6.73;;
12038;SDS011;6080;48.818;9.526;2023-03-23T09:02:10;9.30;;;8.83;;
12038;SDS011;6080;48.818;9.526;2023-03-23T09:04:37;10.97;;;10.37;;
12038;SDS011;6080;48.818;9.526;2023-03-23T09:07:04;15.40;;;14.53;;
12038;SDS011;6080;48.818;9.526;2023-03-23T09:09:31;13.77;;;12.97;;
12038;SDS011;6080;48.818;9.526;2023-03-23T09:11:59;6.37;;;5.90;;
12038;SDS011;6080;48.818;9.526;2023-03-23T09:14:25;6.10;;;5.80;;
12038;SDS011;6080;48.818;9.526;2023-03-23T09:16:51;6.17;;;5.77;;
12038;SDS011;6080;48.818;9.526;2023-03-23T09:19:17;6.80;;;5.77;;
12038;SDS011;6080;48.818;9.526;2023-03-23T09:21:43;4.93;;;4.73;;
12038;SDS011;6080;48.818;9.526;2023-03-23T09:24:10;5.70;;;5.30;;
12038;SDS011;6080;48.818;9.526;2023-03-23T09:26:36;7.07;;;5.13;;
12038;SDS011;6080;48.818;9.526;2023-03-23T09:29:02;6.00;;;5.60;;
12038;SDS011;6080;48.818;9.526;2023-03-23T09:31:28;6.00;;;5.50;;
12038;SDS011;6080;48.818;9.526;2023-03-23T09:33:54;5.47;;;5.17;;
12038;SDS011;6080;48.818;9.526;2023-03-23T09:36:22;7.30;;;6.03;;
12038;SDS011;6080;48.818;9.526;2023-03-23T09:38:50;9.57;;;9.10;;
12038;SDS011;6080;48.818;9.526;2023-03-23T09:52:01;19.47;;;18.27;;
12038;SDS011;6080;48.818;9.526;2023-03-23T09:54:36;19.87;;;18.87;;
12038;SDS011;6080;48.818;9.526;2023-03-23T09:57:15;18.60;;;17.63;;
12038;SDS011;6080;48.818;9.526;2023-03-23T10:02:18;21.07;;;20.10;;
12038;SDS011;6080;48.818;9.526;2023-03-23T10:05:15;19.90;;;18.80;;
12038;SDS011;6080;48.818;9.526;2023-03-23T10:08:01;17.63;;;16.83;;
12038;SDS011;6080;48.818;9.526;2023-03-23T10:16:42;9.20;;;8.73;;
12038;SDS011;6080;48.818;9.526;2023-03-23T10:19:27;11.83;;;11.23;;
12038;SDS011;6080;48.818;9.526;2023-03-23T10:22:08;14.60;;;13.90;;
12038;SDS011;6080;48.818;9.526;2023-03-23T10:24:36;13.53;;;12.60;;
12038;SDS011;6080;48.818;9.526;2023-03-23T10:27:33;13.90;;;13.30;;
12038;SDS011;6080;48.818;9.526;2023-03-23T10:33:25;11.27;;;10.77;;
12038;SDS011;6080;48.818;9.526;2023-03-23T10:38:38;13.87;;;13.13;;
12038;SDS011;6080;48.818;9.526;2023-03-23T10:41:14;16.60;;;15.80;;
12038;SDS011;6080;48.818;9.526;2023-03-23T10:43:42;15.37;;;14.47;;
12038;SDS011;6080;48.818;9.526;2023-03-23T10:49:01;18.40;;;17.40;;
12038;SDS011;6080;48.818;9.526;2023-03-23T10:51:31;20.63;;;19.63;;
12038;SDS011;6080;48.818;9.526;2023-03-23T10:54:01;18.50;;;17.63;;
12038;SDS011;6080;48.818;9.526;2023-03-23T10:56:34;17.17;;;16.03;;
12038;SDS011;6080;48.818;9.526;2023-03-23T10:59:29;17.40;;;16.50;;
12038;SDS011;6080;48.818;9.526;2023-03-23T11:02:00;15.47;;;14.50;;
12038;SDS011;6080;48.818;9.526;2023-03-23T11:04:31;14.50;;;13.80;;
12038;SDS011;6080;48.818;9.526;2023-03-23T11:07:00;15.17;;;14.47;;
12038;SDS011;6080;48.818;9.526;2023-03-23T11:09:38;16.20;;;15.40;;
12038;SDS011;6080;48.818;9.526;2023-03-23T11:12:17;17.30;;;16.40;;
12038;SDS011;6080;48.818;9.526;2023-03-23T11:14:43;21.43;;;20.20;;
12038;SDS011;6080;48.818;9.526;2023-03-23T11:17:23;21.63;;;20.63;;
12038;SDS011;6080;48.818;9.526;2023-03-23T11:19:51;20.93;;;19.93;;
12038;SDS011;6080;48.818;9.526;2023-03-23T11:22:26;20.50;;;19.40;;
12038;SDS011;6080;48.818;9.526;2023-03-23T11:24:54;18.17;;;17.17;;
12038;SDS011;6080;48.818;9.526;2023-03-23T11:27:24;16.30;;;15.50;;
12038;SDS011;6080;48.818;9.526;2023-03-23T11:29:56;16.50;;;15.67;;
12038;SDS011;6080;48.818;9.526;2023-03-23T11:32:27;15.63;;;14.83;;
12038;SDS011;6080;48.818;9.526;2023-03-23T11:35:02;15.47;;;14.67;;
12038;SDS011;6080;48.818;9.526;2023-03-23T11:40:43;24.02;;;22.83;;
12038;SDS011;6080;48.818;9.526;2023-03-23T11:43:13;26.20;;;24.97;;
12038;SDS011;6080;48.818;9.526;2023-03-23T11:48:43;6.90;;;6.23;;
12038;SDS011;6080;48.818;9.526;2023-03-23T11:56:28;4.13;;;3.83;;
12038;SDS011;6080;48.818;9.526;2023-03-23T11:58:59;4.50;;;4.10;;
12038;SDS011;6080;48.818;9.526;2023-03-23T12:04:28;8.43;;;8.00;;
12038;SDS011;6080;48.818;9.526;2023-03-23T12:20:13;20.05;;;19.00;;
12038;SDS011;6080;48.818;9.526;2023-03-23T12:31:55;5.20;;;4.80;;
12038;SDS011;6080;48.818;9.526;2023-03-23T12:34:50;5.28;;;4.97;;
12038;SDS011;6080;48.818;9.526;2023-03-23T12:48:23;10.43;;;9.57;;
12038;SDS011;6080;48.818;9.526;2023-03-23T12:58:59;24.80;;;23.37;;
12038;SDS011;6080;48.818;9.526;2023-03-23T13:05:09;12.17;;;11.57;;
12038;SDS011;6080;48.818;9.526;2023-03-23T13:07:43;10.17;;;9.57;;
12038;SDS011;6080;48.818;9.526;2023-03-23T13:10:19;9.03;;;8.53;;
12038;SDS011;6080;48.818;9.526;2023-03-23T13:12:48;9.73;;;9.13;;
12038;SDS011;6080;48.818;9.526;2023-03-23T13:18:02;11.63;;;10.93;;
12038;SDS011;6080;48.818;9.526;2023-03-23T13:26:03;23.53;;;22.33;;
12038;SDS011;6080;48.818;9.526;2023-03-23T13:31:45;14.20;;;13.27;;
12038;SDS011;6080;48.818;9.526;2023-03-23T13:34:18;13.57;;;12.57;;
12038;SDS011;6080;48.818;9.526;2023-03-23T13:36:54;11.93;;;11.33;;
12038;SDS011;6080;48.818;9.526;2023-03-23T13:39:22;12.27;;;11.67;;
12038;SDS011;6080;48.818;9.526;2023-03-23T13:47:21;29.65;;;28.17;;
12038;SDS011;6080;48.818;9.526;2023-03-23T13:49:53;33.50;;;31.60;;
12038;SDS011;6080;48.818;9.526;2023-03-23T13:52:25;37.33;;;35.53;;
12038;SDS011;6080;48.818;9.526;2023-03-23T13:55:12;25.83;;;24.63;;
12038;SDS011;6080;48.818;9.526;2023-03-23T13:57:57;25.42;;;24.08;;
12038;SDS011;6080;48.818;9.526;2023-03-23T14:00:45;33.42;;;31.73;;
12038;SDS011;6080;48.818;9.526;2023-03-23T14:03:34;35.67;;;33.85;;
12038;SDS011;6080;48.818;9.526;2023-03-23T14:06:04;37.88;;;35.70;;
12038;SDS011;6080;48.818;9.526;2023-03-23T14:10:59;37.00;;;35.00;;
12038;SDS011;6080;48.818;9.526;2023-03-23T14:13:37;39.75;;;37.55;;
12038;SDS011;6080;48.818;9.526;2023-03-23T14:16:17;25.17;;;23.63;;
12038;SDS011;6080;48.818;9.526;2023-03-23T14:18:56;16.27;;;15.17;;
12038;SDS011;6080;48.818;9.526;2023-03-23T14:21:38;15.23;;;14.23;;
12038;SDS011;6080;48.818;9.526;2023-03-23T14:24:08;14.10;;;13.30;;
12038;SDS011;6080;48.818;9.526;2023-03-23T14:26:40;12.03;;;11.43;;
12038;SDS011;6080;48.818;9.526;2023-03-23T14:29:09;12.57;;;11.57;;
12038;SDS011;6080;48.818;9.526;2023-03-23T14:31:36;8.00;;;7.53;;
12038;SDS011;6080;48.818;9.526;2023-03-23T14:34:03;7.60;;;7.00;;
12038;SDS011;6080;48.818;9.526;2023-03-23T14:36:37;7.83;;;7.33;;
12038;SDS011;6080;48.818;9.526;2023-03-23T14:39:05;9.10;;;8.60;;
12038;SDS011;6080;48.818;9.526;2023-03-23T14:41:44;17.80;;;16.60;;
12038;SDS011;6080;48.818;9.526;2023-03-23T14:44:12;25.40;;;23.90;;
12038;SDS011;6080;48.818;9.526;2023-03-23T14:46:42;29.93;;;28.43;;
12038;SDS011;6080;48.818;9.526;2023-03-23T14:49:13;34.00;;;32.20;;
12038;SDS011;6080;48.818;9.526;2023-03-23T14:51:51;36.50;;;34.30;;
12038;SDS011;6080;48.818;9.526;2023-03-23T14:54:24;38.13;;;36.23;;
12038;SDS011;6080;48.818;9.526;2023-03-23T14:56:51;46.07;;;43.67;;
12038;SDS011;6080;48.818;9.526;2023-03-23T14:59:18;40.77;;;38.43;;
12038;SDS011;6080;48.818;9.526;2023-03-23T15:01:45;41.60;;;39.30;;
12038;SDS011;6080;48.818;9.526;2023-03-23T15:04:22;33.50;;;31.80;;
12038;SDS011;6080;48.818;9.526;2023-03-23T15:07:00;27.00;;;25.67;;
12038;SDS011;6080;48.818;9.526;2023-03-23T15:09:30;31.30;;;29.57;;
12038;SDS011;6080;48.818;9.526;2023-03-23T15:11:58;28.42;;;26.92;;
12038;SDS011;6080;48.818;9.526;2023-03-23T15:14:27;39.17;;;37.10;;
12038;SDS011;6080;48.818;9.526;2023-03-23T15:16:56;36.23;;;34.33;;
12038;SDS011;6080;48.818;9.526;2023-03-23T15:19:26;20.80;;;19.80;;
12038;SDS011;6080;48.818;9.526;2023-03-23T15:22:05;13.47;;;12.87;;
12038;SDS011;6080;48.818;9.526;2023-03-23T15:27:40;5.33;;;4.93;;
12038;SDS011;6080;48.818;9.526;2023-03-23T15:30:27;5.50;;;5.10;;
12038;SDS011;6080;48.818;9.526;2023-03-23T15:32:59;5.00;;;4.60;;
12038;SDS011;6080;48.818;9.526;2023-03-23T15:35:35;5.57;;;5.27;;
12038;SDS011;6080;48.818;9.526;2023-03-23T15:38:05;4.67;;;4.40;;
12038;SDS011;6080;48.818;9.526;2023-03-23T15:40:39;5.20;;;4.77;;
12038;SDS011;6080;48.818;9.526;2023-03-23T15:43:14;4.63;;;4.33;;
12038;SDS011;6080;48.818;9.526;2023-03-23T15:45:51;4.77;;;4.37;;
12038;SDS011;6080;48.818;9.526;2023-03-23T15:48:54;4.87;;;4.57;;
12038;SDS011;6080;48.818;9.526;2023-03-23T15:51:33;4.90;;;4.57;;
12038;SDS011;6080;48.818;9.526;2023-03-23T15:53:59;4.87;;;4.43;;
12038;SDS011;6080;48.818;9.526;2023-03-23T15:56:25;4.73;;;4.27;;
12038;SDS011;6080;48.818;9.526;2023-03-23T15:58:51;4.97;;;4.77;;
12038;SDS011;6080;48.818;9.526;2023-03-23T16:01:18;5.47;;;5.17;;
12038;SDS011;6080;48.818;9.526;2023-03-23T16:03:47;6.63;;;5.97;;
12038;SDS011;6080;48.818;9.526;2023-03-23T16:06:30;5.47;;;5.17;;
12038;SDS011;6080;48.818;9.526;2023-03-23T16:08:57;5.50;;;5.20;;
12038;SDS011;6080;48.818;9.526;2023-03-23T16:11:27;6.73;;;6.13;;
12038;SDS011;6080;48.818;9.526;2023-03-23T16:13:54;12.97;;;11.53;;
12038;SDS011;6080;48.818;9.526;2023-03-23T16:16:21;18.17;;;15.87;;
12038;SDS011;6080;48.818;9.526;2023-03-23T16:18:51;7.43;;;6.53;;
12038;SDS011;6080;48.818;9.526;2023-03-23T16:21:17;7.33;;;6.73;;
12038;SDS011;6080;48.818;9.526;2023-03-23T16:23:43;7.23;;;6.53;;
12038;SDS011;6080;48.818;9.526;2023-03-23T16:26:10;6.30;;;5.80;;
12038;SDS011;6080;48.818;9.526;2023-03-23T16:28:37;6.47;;;6.17;;
12038;SDS011;6080;48.818;9.526;2023-03-23T16:31:03;7.50;;;6.90;;
12038;SDS011;6080;48.818;9.526;2023-03-23T16:33:28;6.30;;;5.70;;
12038;SDS011;6080;48.818;9.526;2023-03-23T16:35:54;6.47;;;5.87;;
12038;SDS011;6080;48.818;9.526;2023-03-23T16:38:22;5.87;;;5.47;;
12038;SDS011;6080;48.818;9.526;2023-03-23T16:40:48;5.13;;;4.73;;
12038;SDS011;6080;48.818;9.526;2023-03-23T16:43:14;5.07;;;4.67;;
12038;SDS011;6080;48.818;9.526;2023-03-23T16:45:41;8.07;;;4.20;;
12038;SDS011;6080;48.818;9.526;2023-03-23T16:48:08;4.37;;;4.10;;
12038;SDS011;6080;48.818;9.526;2023-03-23T16:50:34;5.40;;;4.70;;
12038;SDS011;6080;48.818;9.526;2023-03-23T16:53:01;4.57;;;4.27;;
12038;SDS011;6080;48.818;9.526;2023-03-23T16:55:29;4.77;;;4.50;;
12038;SDS011;6080;48.818;9.526;2023-03-23T16:57:55;5.10;;;4.57;;
12038;SDS011;6080;48.818;9.526;2023-03-23T17:00:21;5.13;;;4.70;;
12038;SDS011;6080;48.818;9.526;2023-03-23T17:02:49;4.77;;;4.47;;
12038;SDS011;6080;48.818;9.526;2023-03-23T17:05:19;4.63;;;4.33;;
12038;SDS011;6080;48.818;9.526;2023-03-23T17:07:47;5.03;;;4.73;;
12038;SDS011;6080;48.818;9.526;2023-03-23T17:10:13;6.17;;;5.47;;
12038;SDS011;6080;48.818;9.526;2023-03-23T17:12:40;8.23;;;7.77;;
12038;SDS011;6080;48.818;9.526;2023-03-23T17:15:06;14.80;;;14.00;;
12038;SDS011;6080;48.818;9.526;2023-03-23T17:17:33;19.97;;;18.87;;
12038;SDS011;6080;48.818;9.526;2023-03-23T17:19:59;22.40;;;20.93;;
12038;SDS011;6080;48.818;9.526;2023-03-23T17:22:26;21.47;;;20.17;;
12038;SDS011;6080;48.818;9.526;2023-03-23T17:24:52;18.17;;;17.17;;
12038;SDS011;6080;48.818;9.526;2023-03-23T17:27:19;17.40;;;16.37;;
12038;SDS011;6080;48.818;9.526;2023-03-23T17:29:46;15.43;;;14.53;;
12038;SDS011;6080;48.818;9.526;2023-03-23T17:32:12;13.23;;;12.53;;
12038;SDS011;6080;48.818;9.526;2023-03-23T17:34:38;15.17;;;14.37;;
12038;SDS011;6080;48.818;9.526;2023-03-23T17:37:05;14.63;;;13.83;;
12038;SDS011;6080;48.818;9.526;2023-03-23T17:39:31;14.43;;;13.63;;
12038;SDS011;6080;48.818;9.526;2023-03-23T17:41:58;12.20;;;11.60;;
12038;SDS011;6080;48.818;9.526;2023-03-23T17:44:25;14.40;;;13.73;;
12038;SDS011;6080;48.818;9.526;2023-03-23T17:46:52;16.77;;;15.73;;
12038;SDS011;6080;48.818;9.526;2023-03-23T17:49:20;26.83;;;25.53;;
12038;SDS011;6080;48.818;9.526;2023-03-23T17:51:47;17.30;;;16.10;;
12038;SDS011;6080;48.818;9.526;2023-03-23T17:54:13;16.80;;;15.90;;
12038;SDS011;6080;48.818;9.526;2023-03-23T17:56:38;17.83;;;16.93;;
12038;SDS011;6080;48.818;9.526;2023-03-23T17:59:04;18.93;;;18.03;;
12038;SDS011;6080;48.818;9.526;2023-03-23T18:01:32;20.47;;;19.33;;
12038;SDS011;6080;48.818;9.526;2023-03-23T18:03:58;24.97;;;23.23;;
12038;SDS011;6080;48.818;9.526;2023-03-23T18:06:24;25.33;;;23.57;;
12038;SDS011;6080;48.818;9.526;2023-03-23T18:08:50;25.20;;;23.63;;
12038;SDS011;6080;48.818;9.526;2023-03-23T18:11:15;30.83;;;28.43;;
12038;SDS011;6080;48.818;9.526;2023-03-23T18:13:41;28.07;;;26.23;;
12038;SDS011;6080;48.818;9.526;2023-03-23T18:16:07;27.00;;;25.67;;
12038;SDS011;6080;48.818;9.526;2023-03-23T18:18:34;27.87;;;26.37;;
12038;SDS011;6080;48.818;9.526;2023-03-23T18:21:01;28.07;;;26.47;;
12038;SDS011;6080;48.818;9.526;2023-03-23T18:23:30;27.73;;;25.93;;
12038;SDS011;6080;48.818;9.526;2023-03-23T18:26:01;26.00;;;24.60;;
12038;SDS011;6080;48.818;9.526;2023-03-23T18:28:32;28.40;;;26.80;;
12038;SDS011;6080;48.818;9.526;2023-03-23T18:31:01;40.83;;;37.53;;
12038;SDS011;6080;48.818;9.526;2023-03-23T18:33:29;28.63;;;27.13;;
12038;SDS011;6080;48.818;9.526;2023-03-23T18:35:55;27.40;;;25.97;;
12038;SDS011;6080;48.818;9.526;2023-03-23T18:38:25;30.00;;;28.30;;
12038;SDS011;6080;48.818;9.526;2023-03-23T18:40:52;27.77;;;26.43;;
12038;SDS011;6080;48.818;9.526;2023-03-23T18:43:19;26.00;;;24.60;;
12038;SDS011;6080;48.818;9.526;2023-03-23T18:45:51;26.70;;;25.07;;
12038;SDS011;6080;48.818;9.526;2023-03-23T18:48:20;28.17;;;26.67;;
12038;SDS011;6080;48.818;9.526;2023-03-23T18:50:50;26.27;;;24.97;;
12038;SDS011;6080;48.818;9.526;2023-03-23T18:53:17;29.03;;;27.67;;
12038;SDS011;6080;48.818;9.526;2023-03-23T18:55:44;30.00;;;28.37;;
12038;SDS011;6080;48.818;9.526;2023-03-23T18:58:11;27.77;;;26.27;;
12038;SDS011;6080;48.818;9.526;2023-03-23T19:00:37;26.33;;;25.00;;
12038;SDS011;6080;48.818;9.526;2023-03-23T19:03:03;28.70;;;27.27;;
12038;SDS011;6080;48.818;9.526;2023-03-23T19:05:31;26.77;;;25.33;;
12038;SDS011;6080;48.818;9.526;2023-03-23T19:07:58;27.67;;;26.23;;
12038;SDS011;6080;48.818;9.526;2023-03-23T19:10:25;28.40;;;26.73;;
12038;SDS011;6080;48.818;9.526;2023-03-23T19:12:52;26.63;;;25.33;;
12038;SDS011;6080;48.818;9.526;2023-03-23T19:15:18;27.33;;;25.93;;
12038;SDS011;6080;48.818;9.526;2023-03-23T19:17:44;27.27;;;25.87;;
12038;SDS011;6080;48.818;9.526;2023-03-23T19:20:10;27.00;;;25.57;;
12038;SDS011;6080;48.818;9.526;2023-03-23T19:22:38;27.43;;;25.97;;
12038;SDS011;6080;48.818;9.526;2023-03-23T19:25:04;28.40;;;26.90;;
12038;SDS011;6080;48.818;9.526;2023-03-23T19:27:32;28.47;;;26.87;;
12038;SDS011;6080;48.818;9.526;2023-03-23T19:29:58;21.53;;;20.43;;
12038;SDS011;6080;48.818;9.526;2023-03-23T19:32:24;20.83;;;19.57;;
12038;SDS011;6080;48.818;9.526;2023-03-23T19:34:50;20.80;;;19.50;;
12038;SDS011;6080;48.818;9.526;2023-03-23T19:37:16;20.87;;;19.67;;
12038;SDS011;6080;48.818;9.526;2023-03-23T19:39:42;20.10;;;19.10;;
12038;SDS011;6080;48.818;9.526;2023-03-23T19:42:08;18.93;;;18.03;;
12038;SDS011;6080;48.818;9.526;2023-03-23T19:44:35;19.50;;;18.53;;
12038;SDS011;6080;48.818;9.526;2023-03-23T19:47:00;20.77;;;19.70;;
12038;SDS011;6080;48.818;9.526;2023-03-23T19:49:26;19.53;;;18.43;;
12038;SDS011;6080;48.818;9.526;2023-03-23T19:51:52;20.50;;;19.30;;
12038;SDS011;6080;48.818;9.526;2023-03-23T19:54:19;19.80;;;18.50;;
12038;SDS011;6080;48.818;9.526;2023-03-23T19:56:45;20.37;;;19.07;;
12038;SDS011;6080;48.818;9.526;2023-03-23T19:59:12;20.93;;;19.93;;
12038;SDS011;6080;48.818;9.526;2023-03-23T20:01:40;21.97;;;20.77;;
12038;SDS011;6080;48.818;9.526;2023-03-23T20:04:07;22.20;;;21.10;;
12038;SDS011;6080;48.818;9.526;2023-03-23T20:06:33;22.37;;;21.27;;
12038;SDS011;6080;48.818;9.526;2023-03-23T20:09:00;22.20;;;20.83;;
12038;SDS011;6080;48.818;9.526;2023-03-23T20:11:26;22.33;;;21.23;;
12038;SDS011;6080;48.818;9.526;2023-03-23T20:13:52;21.30;;;20.10;;
12038;SDS011;6080;48.818;9.526;2023-03-23T20:16:19;21.90;;;20.70;;
12038;SDS011;6080;48.818;9.526;2023-03-23T20:18:44;21.93;;;20.73;;
12038;SDS011;6080;48.818;9.526;2023-03-23T20:21:13;19.80;;;18.73;;
12038;SDS011;6080;48.818;9.526;2023-03-23T20:23:41;17.93;;;17.07;;
12038;SDS011;6080;48.818;9.526;2023-03-23T20:26:09;19.03;;;18.07;;
12038;SDS011;6080;48.818;9.526;2023-03-23T20:28:37;18.37;;;17.53;;
12038;SDS011;6080;48.818;9.526;2023-03-23T20:31:04;21.97;;;20.70;;
12038;SDS011;6080;48.818;9.526;2023-03-23T20:33:33;20.37;;;19.27;;
12038;SDS011;6080;48.818;9.526;2023-03-23T20:36:00;20.90;;;19.70;;
12038;SDS011;6080;48.818;9.526;2023-03-23T20:38:26;20.63;;;19.53;;
12038;SDS011;6080;48.818;9.526;2023-03-23T20:40:55;21.57;;;20.27;;
12038;SDS011;6080;48.818;9.526;2023-03-23T20:43:22;19.53;;;18.63;;